sensor_id;sensor_type;location;lat;lon;timestamp;temperature;humidity
62581;DHT22;48640;48.770;9.148;2022-07-03T00:01:49;19.70;63.50
62581;DHT22;48640;48.770;9.148;2022-07-03T00:04:15;19.70;63.70
62581;DHT22;48640;48.770;9.148;2022-07-03T00:06:43;19.70;64.10
62581;DHT22;48640;48.770;9.148;2022-07-03T00:09:12;19.70;64.40
62581;DHT22;48640;48.770;9.148;2022-07-03T00:11:39;19.70;64.70
62581;DHT22;48640;48.770;9.148;2022-07-03T00:14:06;19.70;64.90
62581;DHT22;48640;48.770;9.148;2022-07-03T00:16:33;19.70;64.90
62581;DHT22;48640;48.770;9.148;2022-07-03T00:18:59;19.70;64.90
62581;DHT22;48640;48.770;9.148;2022-07-03T00:21:29;19.70;64.80
62581;DHT22;48640;48.770;9.148;2022-07-03T00:24:02;19.70;65.00
62581;DHT22;48640;48.770;9.148;2022-07-03T00:26:33;19.70;65.30
62581;DHT22;48640;48.770;9.148;2022-07-03T00:29:02;19.80;65.20
62581;DHT22;48640;48.770;9.148;2022-07-03T00:31:31;19.80;65.70
62581;DHT22;48640;48.770;9.148;2022-07-03T00:34:00;19.80;65.10
62581;DHT22;48640;48.770;9.148;2022-07-03T00:36:32;19.80;65.10
62581;DHT22;48640;48.770;9.148;2022-07-03T00:39:00;19.90;65.10
62581;DHT22;48640;48.770;9.148;2022-07-03T00:41:30;19.80;65.00
62581;DHT22;48640;48.770;9.148;2022-07-03T00:43:57;19.80;65.40
62581;DHT22;48640;48.770;9.148;2022-07-03T00:46:25;19.80;65.50
62581;DHT22;48640;48.770;9.148;2022-07-03T00:48:55;19.80;65.90
62581;DHT22;48640;48.770;9.148;2022-07-03T00:51:23;19.70;66.00
62581;DHT22;48640;48.770;9.148;2022-07-03T00:53:52;19.80;66.50
62581;DHT22;48640;48.770;9.148;2022-07-03T00:56:25;19.70;66.60
62581;DHT22;48640;48.770;9.148;2022-07-03T00:58:55;19.60;66.90
62581;DHT22;48640;48.770;9.148;2022-07-03T01:01:25;19.70;66.80
62581;DHT22;48640;48.770;9.148;2022-07-03T01:04:03;19.70;66.80
62581;DHT22;48640;48.770;9.148;2022-07-03T01:06:35;19.60;66.80
62581;DHT22;48640;48.770;9.148;2022-07-03T01:09:03;19.60;67.10
62581;DHT22;48640;48.770;9.148;2022-07-03T01:11:37;19.60;67.30
62581;DHT22;48640;48.770;9.148;2022-07-03T01:14:15;19.70;67.10
62581;DHT22;48640;48.770;9.148;2022-07-03T01:16:51;19.70;66.80
62581;DHT22;48640;48.770;9.148;2022-07-03T01:19:35;19.70;66.80
62581;DHT22;48640;48.770;9.148;2022-07-03T01:22:20;19.70;66.80
62581;DHT22;48640;48.770;9.148;2022-07-03T01:25:01;19.70;67.00
62581;DHT22;48640;48.770;9.148;2022-07-03T01:27:34;19.70;67.20
62581;DHT22;48640;48.770;9.148;2022-07-03T01:30:04;19.70;67.00
62581;DHT22;48640;48.770;9.148;2022-07-03T01:32:32;19.80;66.90
62581;DHT22;48640;48.770;9.148;2022-07-03T01:35:01;19.80;66.60
62581;DHT22;48640;48.770;9.148;2022-07-03T01:37:30;19.80;66.70
62581;DHT22;48640;48.770;9.148;2022-07-03T01:39:58;19.80;66.80
62581;DHT22;48640;48.770;9.148;2022-07-03T01:42:24;19.90;66.90
62581;DHT22;48640;48.770;9.148;2022-07-03T01:44:53;19.90;66.90
62581;DHT22;48640;48.770;9.148;2022-07-03T01:47:24;19.80;67.20
62581;DHT22;48640;48.770;9.148;2022-07-03T01:49:52;19.80;67.10
62581;DHT22;48640;48.770;9.148;2022-07-03T01:52:20;19.80;67.10
62581;DHT22;48640;48.770;9.148;2022-07-03T01:54:48;19.80;67.30
62581;DHT22;48640;48.770;9.148;2022-07-03T01:57:16;19.70;67.50
62581;DHT22;48640;48.770;9.148;2022-07-03T01:59:43;19.70;67.60
62581;DHT22;48640;48.770;9.148;2022-07-03T02:02:15;19.70;67.70
62581;DHT22;48640;48.770;9.148;2022-07-03T02:04:56;19.70;67.80
62581;DHT22;48640;48.770;9.148;2022-07-03T02:07:33;19.80;68.00
62581;DHT22;48640;48.770;9.148;2022-07-03T02:10:04;19.70;68.10
62581;DHT22;48640;48.770;9.148;2022-07-03T02:12:39;19.60;68.40
62581;DHT22;48640;48.770;9.148;2022-07-03T02:15:08;19.60;68.70
62581;DHT22;48640;48.770;9.148;2022-07-03T02:17:38;19.50;69.00
62581;DHT22;48640;48.770;9.148;2022-07-03T02:20:09;19.60;69.00
62581;DHT22;48640;48.770;9.148;2022-07-03T02:22:40;19.50;68.70
62581;DHT22;48640;48.770;9.148;2022-07-03T02:25:09;19.50;69.20
62581;DHT22;48640;48.770;9.148;2022-07-03T02:27:42;19.40;69.50
62581;DHT22;48640;48.770;9.148;2022-07-03T02:30:11;19.30;70.00
62581;DHT22;48640;48.770;9.148;2022-07-03T02:32:44;19.30;70.30
62581;DHT22;48640;48.770;9.148;2022-07-03T02:35:22;19.30;70.50
62581;DHT22;48640;48.770;9.148;2022-07-03T02:37:56;19.30;70.60
62581;DHT22;48640;48.770;9.148;2022-07-03T02:40:28;19.20;70.90
62581;DHT22;48640;48.770;9.148;2022-07-03T02:43:11;19.30;71.00
62581;DHT22;48640;48.770;9.148;2022-07-03T02:45:44;19.20;71.00
62581;DHT22;48640;48.770;9.148;2022-07-03T02:48:24;19.20;71.50
62581;DHT22;48640;48.770;9.148;2022-07-03T02:50:58;19.20;72.40
62581;DHT22;48640;48.770;9.148;2022-07-03T02:53:33;19.20;72.90
62581;DHT22;48640;48.770;9.148;2022-07-03T02:56:07;19.00;73.40
62581;DHT22;48640;48.770;9.148;2022-07-03T02:58:57;19.00;73.70
62581;DHT22;48640;48.770;9.148;2022-07-03T03:01:33;18.90;73.30
62581;DHT22;48640;48.770;9.148;2022-07-03T03:04:09;18.90;74.20
62581;DHT22;48640;48.770;9.148;2022-07-03T03:06:42;18.90;74.30
62581;DHT22;48640;48.770;9.148;2022-07-03T03:09:20;18.80;74.60
62581;DHT22;48640;48.770;9.148;2022-07-03T03:11:47;18.80;74.40
62581;DHT22;48640;48.770;9.148;2022-07-03T03:14:19;18.70;75.10
62581;DHT22;48640;48.770;9.148;2022-07-03T03:16:48;18.70;74.50
62581;DHT22;48640;48.770;9.148;2022-07-03T03:19:20;18.70;75.10
62581;DHT22;48640;48.770;9.148;2022-07-03T03:21:56;18.70;75.20
62581;DHT22;48640;48.770;9.148;2022-07-03T03:24:25;18.70;75.40
62581;DHT22;48640;48.770;9.148;2022-07-03T03:26:52;18.60;75.90
62581;DHT22;48640;48.770;9.148;2022-07-03T03:29:19;18.50;76.40
62581;DHT22;48640;48.770;9.148;2022-07-03T03:31:46;18.50;77.00
62581;DHT22;48640;48.770;9.148;2022-07-03T03:34:13;18.50;77.40
62581;DHT22;48640;48.770;9.148;2022-07-03T03:36:43;18.40;77.60
62581;DHT22;48640;48.770;9.148;2022-07-03T03:39:10;18.50;78.80
62581;DHT22;48640;48.770;9.148;2022-07-03T03:41:38;18.40;78.00
62581;DHT22;48640;48.770;9.148;2022-07-03T03:44:05;18.40;78.20
62581;DHT22;48640;48.770;9.148;2022-07-03T03:46:32;18.30;78.30
62581;DHT22;48640;48.770;9.148;2022-07-03T03:48:59;18.40;78.20
62581;DHT22;48640;48.770;9.148;2022-07-03T03:51:26;18.50;77.30
62581;DHT22;48640;48.770;9.148;2022-07-03T03:53:54;18.60;76.80
62581;DHT22;48640;48.770;9.148;2022-07-03T03:56:21;18.50;76.40
62581;DHT22;48640;48.770;9.148;2022-07-03T03:58:48;18.60;75.10
62581;DHT22;48640;48.770;9.148;2022-07-03T04:01:14;18.70;74.60
62581;DHT22;48640;48.770;9.148;2022-07-03T04:03:41;18.70;74.50
62581;DHT22;48640;48.770;9.148;2022-07-03T04:06:08;18.80;74.40
62581;DHT22;48640;48.770;9.148;2022-07-03T04:08:36;18.80;74.70
62581;DHT22;48640;48.770;9.148;2022-07-03T04:11:04;18.90;74.30
62581;DHT22;48640;48.770;9.148;2022-07-03T04:13:31;19.00;74.00
62581;DHT22;48640;48.770;9.148;2022-07-03T04:15:57;19.00;73.60
62581;DHT22;48640;48.770;9.148;2022-07-03T04:18:24;19.10;73.70
62581;DHT22;48640;48.770;9.148;2022-07-03T04:20:51;19.10;74.00
62581;DHT22;48640;48.770;9.148;2022-07-03T04:23:18;19.20;73.70
62581;DHT22;48640;48.770;9.148;2022-07-03T04:25:46;19.10;74.90
62581;DHT22;48640;48.770;9.148;2022-07-03T04:28:14;19.30;75.00
62581;DHT22;48640;48.770;9.148;2022-07-03T04:30:41;19.40;75.40
62581;DHT22;48640;48.770;9.148;2022-07-03T04:33:08;19.50;74.70
62581;DHT22;48640;48.770;9.148;2022-07-03T04:35:35;19.70;74.20
62581;DHT22;48640;48.770;9.148;2022-07-03T04:38:03;19.80;73.80
62581;DHT22;48640;48.770;9.148;2022-07-03T04:40:30;20.10;71.00
62581;DHT22;48640;48.770;9.148;2022-07-03T04:42:57;20.40;69.70
62581;DHT22;48640;48.770;9.148;2022-07-03T04:45:25;20.70;67.80
62581;DHT22;48640;48.770;9.148;2022-07-03T04:47:52;21.00;66.70
62581;DHT22;48640;48.770;9.148;2022-07-03T04:50:19;21.50;65.90
62581;DHT22;48640;48.770;9.148;2022-07-03T04:52:45;21.90;63.70
62581;DHT22;48640;48.770;9.148;2022-07-03T04:55:12;22.30;61.80
62581;DHT22;48640;48.770;9.148;2022-07-03T04:57:39;22.50;60.50
62581;DHT22;48640;48.770;9.148;2022-07-03T05:00:07;22.90;59.90
62581;DHT22;48640;48.770;9.148;2022-07-03T05:02:36;23.20;58.80
62581;DHT22;48640;48.770;9.148;2022-07-03T05:05:03;23.40;58.20
62581;DHT22;48640;48.770;9.148;2022-07-03T05:07:30;23.70;57.40
62581;DHT22;48640;48.770;9.148;2022-07-03T05:09:57;23.80;57.60
62581;DHT22;48640;48.770;9.148;2022-07-03T05:12:24;24.00;56.30
62581;DHT22;48640;48.770;9.148;2022-07-03T05:14:51;24.20;55.50
62581;DHT22;48640;48.770;9.148;2022-07-03T05:17:18;24.50;55.50
62581;DHT22;48640;48.770;9.148;2022-07-03T05:19:46;24.80;54.10
62581;DHT22;48640;48.770;9.148;2022-07-03T05:22:33;25.00;53.60
62581;DHT22;48640;48.770;9.148;2022-07-03T05:25:00;25.40;52.60
62581;DHT22;48640;48.770;9.148;2022-07-03T05:27:27;25.90;51.50
62581;DHT22;48640;48.770;9.148;2022-07-03T05:29:54;26.10;49.90
62581;DHT22;48640;48.770;9.148;2022-07-03T05:32:20;26.10;50.40
62581;DHT22;48640;48.770;9.148;2022-07-03T05:34:49;26.10;50.10
62581;DHT22;48640;48.770;9.148;2022-07-03T05:37:15;26.40;50.00
62581;DHT22;48640;48.770;9.148;2022-07-03T05:39:42;26.60;49.20
62581;DHT22;48640;48.770;9.148;2022-07-03T05:42:09;27.10;48.60
62581;DHT22;48640;48.770;9.148;2022-07-03T05:44:36;27.40;47.10
62581;DHT22;48640;48.770;9.148;2022-07-03T05:47:03;27.60;47.70
62581;DHT22;48640;48.770;9.148;2022-07-03T05:49:30;27.90;46.30
62581;DHT22;48640;48.770;9.148;2022-07-03T05:51:58;28.20;45.20
62581;DHT22;48640;48.770;9.148;2022-07-03T05:54:25;28.40;45.60
62581;DHT22;48640;48.770;9.148;2022-07-03T05:56:52;28.80;44.20
62581;DHT22;48640;48.770;9.148;2022-07-03T05:59:19;29.30;43.80
62581;DHT22;48640;48.770;9.148;2022-07-03T06:01:45;29.40;43.00
62581;DHT22;48640;48.770;9.148;2022-07-03T06:04:12;29.90;42.10
62581;DHT22;48640;48.770;9.148;2022-07-03T06:06:39;30.00;41.50
62581;DHT22;48640;48.770;9.148;2022-07-03T06:09:07;30.30;41.00
62581;DHT22;48640;48.770;9.148;2022-07-03T06:11:34;30.60;40.50
62581;DHT22;48640;48.770;9.148;2022-07-03T06:14:01;30.80;40.20
62581;DHT22;48640;48.770;9.148;2022-07-03T06:16:28;31.50;38.90
62581;DHT22;48640;48.770;9.148;2022-07-03T06:18:55;32.10;37.40
62581;DHT22;48640;48.770;9.148;2022-07-03T06:21:22;33.10;37.00
62581;DHT22;48640;48.770;9.148;2022-07-03T06:23:48;33.70;35.70
62581;DHT22;48640;48.770;9.148;2022-07-03T06:26:17;34.10;35.00
62581;DHT22;48640;48.770;9.148;2022-07-03T06:28:44;34.70;34.00
62581;DHT22;48640;48.770;9.148;2022-07-03T06:31:11;34.50;33.10
62581;DHT22;48640;48.770;9.148;2022-07-03T06:33:38;34.70;33.30
62581;DHT22;48640;48.770;9.148;2022-07-03T06:36:05;35.30;32.20
62581;DHT22;48640;48.770;9.148;2022-07-03T06:38:32;35.70;31.00
62581;DHT22;48640;48.770;9.148;2022-07-03T06:40:59;36.10;31.10
62581;DHT22;48640;48.770;9.148;2022-07-03T06:43:27;36.70;29.60
62581;DHT22;48640;48.770;9.148;2022-07-03T06:45:54;37.30;29.40
62581;DHT22;48640;48.770;9.148;2022-07-03T06:48:21;37.30;29.50
62581;DHT22;48640;48.770;9.148;2022-07-03T06:50:48;36.30;29.50
62581;DHT22;48640;48.770;9.148;2022-07-03T06:53:15;35.20;29.70
62581;DHT22;48640;48.770;9.148;2022-07-03T06:55:42;33.70;31.20
62581;DHT22;48640;48.770;9.148;2022-07-03T06:58:09;32.80;33.40
62581;DHT22;48640;48.770;9.148;2022-07-03T07:00:37;32.20;33.60
62581;DHT22;48640;48.770;9.148;2022-07-03T07:03:04;32.10;33.50
62581;DHT22;48640;48.770;9.148;2022-07-03T07:05:31;32.10;33.70
62581;DHT22;48640;48.770;9.148;2022-07-03T07:07:58;33.20;32.70
62581;DHT22;48640;48.770;9.148;2022-07-03T07:10:25;34.50;30.50
62581;DHT22;48640;48.770;9.148;2022-07-03T07:12:52;35.30;30.00
62581;DHT22;48640;48.770;9.148;2022-07-03T07:15:19;36.10;29.80
62581;DHT22;48640;48.770;9.148;2022-07-03T07:17:47;35.70;28.80
62581;DHT22;48640;48.770;9.148;2022-07-03T07:20:14;35.20;29.20
62581;DHT22;48640;48.770;9.148;2022-07-03T07:22:41;34.60;28.90
62581;DHT22;48640;48.770;9.148;2022-07-03T07:25:08;34.90;29.20
62581;DHT22;48640;48.770;9.148;2022-07-03T07:27:35;36.20;28.00
62581;DHT22;48640;48.770;9.148;2022-07-03T07:30:03;37.60;27.10
62581;DHT22;48640;48.770;9.148;2022-07-03T07:32:29;39.50;26.00
62581;DHT22;48640;48.770;9.148;2022-07-03T07:34:58;39.40;24.00
62581;DHT22;48640;48.770;9.148;2022-07-03T07:37:25;37.90;25.70
62581;DHT22;48640;48.770;9.148;2022-07-03T07:39:51;37.60;25.10
62581;DHT22;48640;48.770;9.148;2022-07-03T07:42:18;39.20;24.00
62581;DHT22;48640;48.770;9.148;2022-07-03T07:44:45;40.10;23.60
62581;DHT22;48640;48.770;9.148;2022-07-03T07:47:12;40.90;22.70
62581;DHT22;48640;48.770;9.148;2022-07-03T07:49:39;41.30;22.30
62581;DHT22;48640;48.770;9.148;2022-07-03T07:52:07;42.00;21.80
62581;DHT22;48640;48.770;9.148;2022-07-03T07:54:34;42.80;21.70
62581;DHT22;48640;48.770;9.148;2022-07-03T07:57:01;43.30;20.60
62581;DHT22;48640;48.770;9.148;2022-07-03T07:59:27;43.40;21.40
62581;DHT22;48640;48.770;9.148;2022-07-03T08:01:54;43.70;20.50
62581;DHT22;48640;48.770;9.148;2022-07-03T08:04:44;44.10;20.20
62581;DHT22;48640;48.770;9.148;2022-07-03T08:07:29;44.60;19.20
62581;DHT22;48640;48.770;9.148;2022-07-03T08:09:56;44.50;19.80
62581;DHT22;48640;48.770;9.148;2022-07-03T08:12:23;45.70;18.80
62581;DHT22;48640;48.770;9.148;2022-07-03T08:14:50;46.70;17.90
62581;DHT22;48640;48.770;9.148;2022-07-03T08:17:17;48.00;17.10
62581;DHT22;48640;48.770;9.148;2022-07-03T08:19:44;48.50;17.30
62581;DHT22;48640;48.770;9.148;2022-07-03T08:22:11;48.50;16.70
62581;DHT22;48640;48.770;9.148;2022-07-03T08:24:39;48.10;16.00
62581;DHT22;48640;48.770;9.148;2022-07-03T08:27:06;46.60;17.10
62581;DHT22;48640;48.770;9.148;2022-07-03T08:29:33;47.40;17.10
62581;DHT22;48640;48.770;9.148;2022-07-03T08:32:00;48.10;16.10
62581;DHT22;48640;48.770;9.148;2022-07-03T08:34:27;48.10;16.30
62581;DHT22;48640;48.770;9.148;2022-07-03T08:36:54;48.40;16.40
62581;DHT22;48640;48.770;9.148;2022-07-03T08:39:20;49.10;15.40
62581;DHT22;48640;48.770;9.148;2022-07-03T08:41:49;48.10;15.80
62581;DHT22;48640;48.770;9.148;2022-07-03T08:44:18;49.00;16.00
62581;DHT22;48640;48.770;9.148;2022-07-03T08:46:47;48.70;15.30
62581;DHT22;48640;48.770;9.148;2022-07-03T08:49:16;48.00;15.80
62581;DHT22;48640;48.770;9.148;2022-07-03T08:51:45;47.10;16.90
62581;DHT22;48640;48.770;9.148;2022-07-03T08:54:12;47.10;16.30
62581;DHT22;48640;48.770;9.148;2022-07-03T08:56:40;47.10;16.00
62581;DHT22;48640;48.770;9.148;2022-07-03T08:59:09;47.30;16.20
62581;DHT22;48640;48.770;9.148;2022-07-03T09:01:35;48.00;15.60
62581;DHT22;48640;48.770;9.148;2022-07-03T09:04:09;48.00;15.70
62581;DHT22;48640;48.770;9.148;2022-07-03T09:06:38;47.40;16.00
62581;DHT22;48640;48.770;9.148;2022-07-03T09:09:06;47.40;16.40
62581;DHT22;48640;48.770;9.148;2022-07-03T09:11:33;47.60;16.00
62581;DHT22;48640;48.770;9.148;2022-07-03T09:14:00;48.40;15.70
62581;DHT22;48640;48.770;9.148;2022-07-03T09:16:29;48.20;14.30
62581;DHT22;48640;48.770;9.148;2022-07-03T09:18:56;46.70;16.10
62581;DHT22;48640;48.770;9.148;2022-07-03T09:21:23;47.40;15.60
62581;DHT22;48640;48.770;9.148;2022-07-03T09:23:50;48.20;15.60
62581;DHT22;48640;48.770;9.148;2022-07-03T09:26:18;48.20;15.10
62581;DHT22;48640;48.770;9.148;2022-07-03T09:28:48;48.50;15.10
62581;DHT22;48640;48.770;9.148;2022-07-03T09:31:18;48.50;14.40
62581;DHT22;48640;48.770;9.148;2022-07-03T09:33:53;48.70;14.40
62581;DHT22;48640;48.770;9.148;2022-07-03T09:36:22;49.80;14.20
62581;DHT22;48640;48.770;9.148;2022-07-03T09:38:49;48.50;14.00
62581;DHT22;48640;48.770;9.148;2022-07-03T09:41:16;48.80;14.50
62581;DHT22;48640;48.770;9.148;2022-07-03T09:43:44;48.60;14.70
62581;DHT22;48640;48.770;9.148;2022-07-03T09:46:11;48.70;14.40
62581;DHT22;48640;48.770;9.148;2022-07-03T09:48:39;48.40;15.30
62581;DHT22;48640;48.770;9.148;2022-07-03T09:51:17;47.50;15.10
62581;DHT22;48640;48.770;9.148;2022-07-03T09:53:54;46.90;15.40
62581;DHT22;48640;48.770;9.148;2022-07-03T09:56:23;47.20;15.90
62581;DHT22;48640;48.770;9.148;2022-07-03T09:59:09;46.60;15.90
62581;DHT22;48640;48.770;9.148;2022-07-03T10:01:38;45.80;16.60
62581;DHT22;48640;48.770;9.148;2022-07-03T10:04:10;45.60;16.80
62581;DHT22;48640;48.770;9.148;2022-07-03T10:06:48;45.70;16.60
62581;DHT22;48640;48.770;9.148;2022-07-03T10:09:15;44.80;16.50
62581;DHT22;48640;48.770;9.148;2022-07-03T10:11:43;46.60;17.30
62581;DHT22;48640;48.770;9.148;2022-07-03T10:14:13;46.40;16.80
62581;DHT22;48640;48.770;9.148;2022-07-03T10:16:40;47.20;16.70
62581;DHT22;48640;48.770;9.148;2022-07-03T10:19:13;48.20;16.10
62581;DHT22;48640;48.770;9.148;2022-07-03T10:21:42;47.80;16.00
62581;DHT22;48640;48.770;9.148;2022-07-03T10:24:11;47.20;16.20
62581;DHT22;48640;48.770;9.148;2022-07-03T10:26:42;45.80;16.90
62581;DHT22;48640;48.770;9.148;2022-07-03T10:29:10;44.70;17.10
62581;DHT22;48640;48.770;9.148;2022-07-03T10:31:43;43.80;18.40
62581;DHT22;48640;48.770;9.148;2022-07-03T10:34:11;43.50;18.80
62581;DHT22;48640;48.770;9.148;2022-07-03T10:36:39;42.10;19.40
62581;DHT22;48640;48.770;9.148;2022-07-03T10:39:07;41.10;20.60
62581;DHT22;48640;48.770;9.148;2022-07-03T10:41:41;39.70;21.60
62581;DHT22;48640;48.770;9.148;2022-07-03T10:44:27;38.90;22.60
62581;DHT22;48640;48.770;9.148;2022-07-03T10:47:45;38.60;22.60
62581;DHT22;48640;48.770;9.148;2022-07-03T10:50:13;38.90;22.80
62581;DHT22;48640;48.770;9.148;2022-07-03T10:52:41;39.20;22.50
62581;DHT22;48640;48.770;9.148;2022-07-03T10:55:08;39.10;22.70
62581;DHT22;48640;48.770;9.148;2022-07-03T10:57:38;38.80;22.90
62581;DHT22;48640;48.770;9.148;2022-07-03T11:00:18;38.90;23.20
62581;DHT22;48640;48.770;9.148;2022-07-03T11:02:47;38.40;23.10
62581;DHT22;48640;48.770;9.148;2022-07-03T11:05:19;38.30;23.20
62581;DHT22;48640;48.770;9.148;2022-07-03T11:08:06;37.70;23.50
62581;DHT22;48640;48.770;9.148;2022-07-03T11:10:37;37.60;23.20
62581;DHT22;48640;48.770;9.148;2022-07-03T11:13:16;37.00;23.40
62581;DHT22;48640;48.770;9.148;2022-07-03T11:15:48;36.90;24.10
62581;DHT22;48640;48.770;9.148;2022-07-03T11:18:17;36.90;25.20
62581;DHT22;48640;48.770;9.148;2022-07-03T11:24:16;36.90;24.90
62581;DHT22;48640;48.770;9.148;2022-07-03T11:26:44;36.30;24.30
62581;DHT22;48640;48.770;9.148;2022-07-03T11:29:27;36.00;24.90
62581;DHT22;48640;48.770;9.148;2022-07-03T11:31:55;35.80;25.20
62581;DHT22;48640;48.770;9.148;2022-07-03T11:34:21;35.40;25.80
62581;DHT22;48640;48.770;9.148;2022-07-03T11:36:48;35.60;26.10
62581;DHT22;48640;48.770;9.148;2022-07-03T11:39:19;35.80;25.60
62581;DHT22;48640;48.770;9.148;2022-07-03T11:41:47;35.30;25.90
62581;DHT22;48640;48.770;9.148;2022-07-03T11:44:19;35.20;26.00
62581;DHT22;48640;48.770;9.148;2022-07-03T11:46:51;34.90;25.80
62581;DHT22;48640;48.770;9.148;2022-07-03T11:49:21;34.50;27.30
62581;DHT22;48640;48.770;9.148;2022-07-03T11:52:00;34.00;27.50
62581;DHT22;48640;48.770;9.148;2022-07-03T11:54:30;33.40;27.70
62581;DHT22;48640;48.770;9.148;2022-07-03T11:56:57;31.50;29.20
62581;DHT22;48640;48.770;9.148;2022-07-03T11:59:25;31.50;30.00
62581;DHT22;48640;48.770;9.148;2022-07-03T12:02:01;30.80;30.90
62581;DHT22;48640;48.770;9.148;2022-07-03T12:04:28;30.80;32.60
62581;DHT22;48640;48.770;9.148;2022-07-03T12:06:57;31.40;31.10
62581;DHT22;48640;48.770;9.148;2022-07-03T12:09:26;31.00;30.40
62581;DHT22;48640;48.770;9.148;2022-07-03T12:11:54;31.10;31.00
62581;DHT22;48640;48.770;9.148;2022-07-03T12:14:40;30.80;31.20
62581;DHT22;48640;48.770;9.148;2022-07-03T12:17:11;30.70;32.50
62581;DHT22;48640;48.770;9.148;2022-07-03T12:19:44;30.70;31.90
62581;DHT22;48640;48.770;9.148;2022-07-03T12:22:12;30.30;32.50
62581;DHT22;48640;48.770;9.148;2022-07-03T12:24:39;30.70;33.50
62581;DHT22;48640;48.770;9.148;2022-07-03T12:27:07;30.70;31.50
62581;DHT22;48640;48.770;9.148;2022-07-03T12:29:35;30.30;32.00
62581;DHT22;48640;48.770;9.148;2022-07-03T12:32:09;30.10;32.60
62581;DHT22;48640;48.770;9.148;2022-07-03T12:34:38;30.50;33.50
62581;DHT22;48640;48.770;9.148;2022-07-03T12:37:05;30.60;32.00
62581;DHT22;48640;48.770;9.148;2022-07-03T12:39:42;30.90;31.10
62581;DHT22;48640;48.770;9.148;2022-07-03T12:42:20;30.30;32.20
62581;DHT22;48640;48.770;9.148;2022-07-03T12:44:58;30.60;32.60
62581;DHT22;48640;48.770;9.148;2022-07-03T12:47:28;31.00;34.00
62581;DHT22;48640;48.770;9.148;2022-07-03T12:49:58;31.50;32.30
62581;DHT22;48640;48.770;9.148;2022-07-03T12:52:26;31.90;31.10
62581;DHT22;48640;48.770;9.148;2022-07-03T12:54:53;32.00;30.40
62581;DHT22;48640;48.770;9.148;2022-07-03T12:57:21;32.10;30.50
62581;DHT22;48640;48.770;9.148;2022-07-03T13:00:08;32.10;31.10
62581;DHT22;48640;48.770;9.148;2022-07-03T13:02:38;32.30;31.60
62581;DHT22;48640;48.770;9.148;2022-07-03T13:05:16;32.20;30.90
62581;DHT22;48640;48.770;9.148;2022-07-03T13:07:44;32.10;31.40
62581;DHT22;48640;48.770;9.148;2022-07-03T13:10:12;31.90;31.30
62581;DHT22;48640;48.770;9.148;2022-07-03T13:12:47;31.50;31.40
62581;DHT22;48640;48.770;9.148;2022-07-03T13:15:16;31.20;31.40
62581;DHT22;48640;48.770;9.148;2022-07-03T13:18:00;31.00;32.40
62581;DHT22;48640;48.770;9.148;2022-07-03T13:20:29;30.90;32.00
62581;DHT22;48640;48.770;9.148;2022-07-03T13:22:56;30.60;32.80
62581;DHT22;48640;48.770;9.148;2022-07-03T13:25:23;30.70;34.00
62581;DHT22;48640;48.770;9.148;2022-07-03T13:27:50;30.90;34.30
62581;DHT22;48640;48.770;9.148;2022-07-03T13:30:19;31.00;34.30
62581;DHT22;48640;48.770;9.148;2022-07-03T13:32:46;30.90;34.00
62581;DHT22;48640;48.770;9.148;2022-07-03T13:35:14;30.70;34.30
62581;DHT22;48640;48.770;9.148;2022-07-03T13:37:41;30.40;34.90
62581;DHT22;48640;48.770;9.148;2022-07-03T13:40:08;30.20;35.60
62581;DHT22;48640;48.770;9.148;2022-07-03T13:42:35;30.00;35.00
62581;DHT22;48640;48.770;9.148;2022-07-03T13:45:02;30.10;35.80
62581;DHT22;48640;48.770;9.148;2022-07-03T13:47:29;30.40;35.90
62581;DHT22;48640;48.770;9.148;2022-07-03T13:49:56;30.50;35.40
62581;DHT22;48640;48.770;9.148;2022-07-03T13:52:24;30.60;35.30
62581;DHT22;48640;48.770;9.148;2022-07-03T13:54:51;30.50;35.60
62581;DHT22;48640;48.770;9.148;2022-07-03T13:57:18;30.70;34.60
62581;DHT22;48640;48.770;9.148;2022-07-03T13:59:45;31.00;35.50
62581;DHT22;48640;48.770;9.148;2022-07-03T14:02:11;30.80;35.40
62581;DHT22;48640;48.770;9.148;2022-07-03T14:04:38;30.70;36.10
62581;DHT22;48640;48.770;9.148;2022-07-03T14:07:05;30.80;35.90
62581;DHT22;48640;48.770;9.148;2022-07-03T14:09:34;30.70;36.00
62581;DHT22;48640;48.770;9.148;2022-07-03T14:12:00;30.60;35.90
62581;DHT22;48640;48.770;9.148;2022-07-03T14:14:27;30.40;36.00
62581;DHT22;48640;48.770;9.148;2022-07-03T14:16:54;30.30;36.00
62581;DHT22;48640;48.770;9.148;2022-07-03T14:19:21;30.30;36.50
62581;DHT22;48640;48.770;9.148;2022-07-03T14:21:48;30.30;36.20
62581;DHT22;48640;48.770;9.148;2022-07-03T14:24:15;30.20;35.90
62581;DHT22;48640;48.770;9.148;2022-07-03T14:26:43;30.10;36.20
62581;DHT22;48640;48.770;9.148;2022-07-03T14:29:27;30.10;36.90
62581;DHT22;48640;48.770;9.148;2022-07-03T14:32:11;30.10;36.40
62581;DHT22;48640;48.770;9.148;2022-07-03T14:34:56;30.00;36.70
62581;DHT22;48640;48.770;9.148;2022-07-03T14:37:23;29.90;36.50
62581;DHT22;48640;48.770;9.148;2022-07-03T14:39:50;29.90;37.10
62581;DHT22;48640;48.770;9.148;2022-07-03T14:42:19;29.90;37.30
62581;DHT22;48640;48.770;9.148;2022-07-03T14:44:46;29.90;37.20
62581;DHT22;48640;48.770;9.148;2022-07-03T14:47:13;29.90;37.00
62581;DHT22;48640;48.770;9.148;2022-07-03T14:49:40;29.70;37.10
62581;DHT22;48640;48.770;9.148;2022-07-03T14:52:08;29.80;37.30
62581;DHT22;48640;48.770;9.148;2022-07-03T14:54:35;29.70;37.30
62581;DHT22;48640;48.770;9.148;2022-07-03T14:57:07;29.60;37.30
62581;DHT22;48640;48.770;9.148;2022-07-03T14:59:53;29.50;37.60
62581;DHT22;48640;48.770;9.148;2022-07-03T15:02:22;29.40;37.50
62581;DHT22;48640;48.770;9.148;2022-07-03T15:04:58;29.40;37.60
62581;DHT22;48640;48.770;9.148;2022-07-03T15:07:30;29.40;37.70
62581;DHT22;48640;48.770;9.148;2022-07-03T15:10:04;29.30;37.30
62581;DHT22;48640;48.770;9.148;2022-07-03T15:12:33;29.20;37.60
62581;DHT22;48640;48.770;9.148;2022-07-03T15:15:07;29.20;37.60
62581;DHT22;48640;48.770;9.148;2022-07-03T15:17:35;29.10;37.30
62581;DHT22;48640;48.770;9.148;2022-07-03T15:20:04;29.10;37.60
62581;DHT22;48640;48.770;9.148;2022-07-03T15:22:31;29.00;37.50
62581;DHT22;48640;48.770;9.148;2022-07-03T15:24:58;29.00;37.60
62581;DHT22;48640;48.770;9.148;2022-07-03T15:27:27;29.00;37.50
62581;DHT22;48640;48.770;9.148;2022-07-03T15:29:56;29.10;37.20
62581;DHT22;48640;48.770;9.148;2022-07-03T15:32:25;29.00;37.10
62581;DHT22;48640;48.770;9.148;2022-07-03T15:34:53;29.00;37.00
62581;DHT22;48640;48.770;9.148;2022-07-03T15:40:16;29.00;37.20
62581;DHT22;48640;48.770;9.148;2022-07-03T15:42:56;29.00;37.30
62581;DHT22;48640;48.770;9.148;2022-07-03T15:45:35;29.00;37.40
62581;DHT22;48640;48.770;9.148;2022-07-03T15:48:10;29.00;37.10
62581;DHT22;48640;48.770;9.148;2022-07-03T15:50:42;29.20;36.80
62581;DHT22;48640;48.770;9.148;2022-07-03T15:53:15;29.00;36.80